Time;durP1;ratioP1;P1;durP2;ratioP2;P2;SDS_P1;SDS_P2;PMS_P1;PMS_P2;Temp;Humidity;BMP_temperature;BMP_pressure;BME280_temperature;BME280_humidity;BME280_pressure;Samples;Min_cycle;Max_cycle;Signal;HPM_P1;HPM_P2
2021/06/20 00:01:13;;;;;;;;;;;;;;;23.21;74.79;100557.46;1724757;79;20630;-59
2021/06/20 00:03:39;;;;;;;;;;;;;;;23.20;74.81;100550.31;1764258;79;21652;-59
2021/06/20 00:06:08;;;;;;;;;;;;;;;23.20;74.82;100549.50;1753244;79;20310;-59
2021/06/20 00:08:34;;;;;;;;;;;;;;;23.18;74.82;100548.44;1756306;79;20246;-59
2021/06/20 00:11:00;;;;;;;;;;;;;;;23.16;74.82;100543.01;1761042;79;20284;-59
2021/06/20 00:13:25;;;;;;;;;;;;;;;23.14;74.83;100545.30;1755844;79;21291;-58
2021/06/20 00:15:51;;;;;;;;;;;;;;;23.11;74.83;100540.44;1755446;79;20506;-58
2021/06/20 00:18:17;;;;;;;;;;;;;;;23.09;74.83;100545.50;1756278;79;20265;-59
2021/06/20 00:20:44;;;;;;;;;;;;;;;23.06;74.84;100535.91;1754518;79;20581;-59
2021/06/20 00:23:10;;;;;;;;;;;;;;;23.05;74.85;100530.69;1759657;79;20660;-59
2021/06/20 00:25:37;;;;;;;;;;;;;;;23.01;74.86;100532.52;1754084;79;21931;-59
2021/06/20 00:28:04;;;;;;;;;;;;;;;22.99;74.89;100530.11;1759507;79;20192;-58
2021/06/20 00:30:31;;;;;;;;;;;;;;;22.97;74.90;100531.01;1756871;79;20579;-58
2021/06/20 00:32:57;;;;;;;;;;;;;;;22.96;74.93;100529.95;1754823;79;21848;-59
2021/06/20 00:35:23;;;;;;;;;;;;;;;22.93;74.94;100523.13;1761122;79;20192;-58
2021/06/20 00:37:49;;;;;;;;;;;;;;;22.95;74.91;100526.96;1763836;79;21077;-59
2021/06/20 00:40:18;;;;;;;;;;;;;;;22.95;74.92;100520.03;1757722;79;20203;-58
2021/06/20 00:42:44;;;;;;;;;;;;;;;22.95;74.95;100520.84;1755468;79;20374;-59
2021/06/20 00:45:11;;;;;;;;;;;;;;;22.95;74.97;100518.07;1761234;79;20165;-59
2021/06/20 00:47:37;;;;;;;;;;;;;;;22.96;75.01;100517.47;1756187;79;20149;-58
2021/06/20 00:50:06;;;;;;;;;;;;;;;22.98;75.05;100519.34;1759051;79;21253;-58
2021/06/20 00:52:33;;;;;;;;;;;;;;;22.98;75.08;100518.77;1758726;79;20294;-59
2021/06/20 00:54:59;;;;;;;;;;;;;;;23.00;75.08;100514.27;1755264;79;20292;-58
2021/06/20 00:57:25;;;;;;;;;;;;;;;23.01;75.08;100518.08;1761697;79;20461;-58
2021/06/20 00:59:51;;;;;;;;;;;;;;;23.04;75.12;100512.44;1759555;79;20709;-59
2021/06/20 01:02:18;;;;;;;;;;;;;;;23.04;75.09;100509.66;1767600;79;21069;-59
2021/06/20 01:04:46;;;;;;;;;;;;;;;23.04;75.09;100506.28;1760858;79;20915;-59
2021/06/20 01:07:17;;;;;;;;;;;;;;;23.06;75.10;100505.95;1762425;79;20188;-59
2021/06/20 01:09:43;;;;;;;;;;;;;;;23.06;75.11;100501.80;1756609;79;20199;-58
2021/06/20 01:12:10;;;;;;;;;;;;;;;23.07;75.09;100500.65;1762922;79;20180;-58
2021/06/20 01:14:36;;;;;;;;;;;;;;;23.07;75.08;100497.30;1723208;80;21142;-58
2021/06/20 01:17:03;;;;;;;;;;;;;;;23.08;75.08;100499.50;1761680;79;21072;-58
2021/06/20 01:19:29;;;;;;;;;;;;;;;23.09;75.08;100492.78;1752499;79;20188;-59
2021/06/20 01:21:55;;;;;;;;;;;;;;;23.09;75.05;100492.78;1753219;79;20329;-58
2021/06/20 01:24:21;;;;;;;;;;;;;;;23.08;75.10;100486.45;1753551;79;20465;-59
2021/06/20 01:26:47;;;;;;;;;;;;;;;23.07;75.10;100484.00;1760138;79;23268;-58
2021/06/20 01:29:16;;;;;;;;;;;;;;;23.06;75.10;100483.76;1767607;79;20253;-58
2021/06/20 01:31:48;;;;;;;;;;;;;;;23.04;75.09;100478.54;1755383;79;20137;-58
2021/06/20 01:34:09;;;;;;;;;;;;;;;23.01;75.09;100475.64;1755650;79;20147;-58
2021/06/20 01:36:35;;;;;;;;;;;;;;;22.98;75.11;100474.37;1757663;79;20933;-58
2021/06/20 01:39:01;;;;;;;;;;;;;;;22.97;75.13;100477.48;1756680;79;21211;-58
2021/06/20 01:41:27;;;;;;;;;;;;;;;22.95;75.10;100479.80;1746002;80;20218;-59
2021/06/20 01:43:53;;;;;;;;;;;;;;;22.91;75.10;100479.67;1746787;79;20258;-58
2021/06/20 01:46:19;;;;;;;;;;;;;;;22.90;75.12;100474.46;1751641;80;21910;-58
2021/06/20 01:48:44;;;;;;;;;;;;;;;22.87;75.14;100474.58;1749922;80;20270;-58
2021/06/20 01:51:10;;;;;;;;;;;;;;;22.85;75.15;100470.50;1749740;80;21103;-58
2021/06/20 01:53:36;;;;;;;;;;;;;;;22.83;75.16;100482.53;1750759;80;20251;-58
2021/06/20 01:56:03;;;;;;;;;;;;;;;22.81;75.21;100483.43;1749212;79;20219;-58
2021/06/20 01:58:29;;;;;;;;;;;;;;;22.82;75.16;100483.67;1747778;80;20375;-58
2021/06/20 02:00:56;;;;;;;;;;;;;;;22.83;75.16;100486.69;1747527;80;20183;-58
2021/06/20 02:03:25;;;;;;;;;;;;;;;22.83;75.22;100488.08;1748749;80;21080;-58
2021/06/20 02:05:52;;;;;;;;;;;;;;;22.84;75.21;100491.06;1747031;79;20138;-58
2021/06/20 02:08:19;;;;;;;;;;;;;;;22.85;75.25;100488.53;1752787;80;20389;-58
2021/06/20 02:10:46;;;;;;;;;;;;;;;22.86;75.26;100495.71;1751539;80;21853;-58
2021/06/20 02:13:12;;;;;;;;;;;;;;;22.87;75.30;100493.18;1748657;80;20123;-58
2021/06/20 02:15:38;;;;;;;;;;;;;;;22.87;75.27;100490.41;1743615;80;21072;-59
2021/06/20 02:18:04;;;;;;;;;;;;;;;22.89;75.30;100490.86;1751360;79;20171;-58
2021/06/20 02:20:31;;;;;;;;;;;;;;;22.90;75.29;100490.53;1752102;80;20134;-58
2021/06/20 02:22:57;;;;;;;;;;;;;;;22.92;75.28;100489.59;1739896;80;20426;-58
2021/06/20 02:25:23;;;;;;;;;;;;;;;22.92;75.28;100489.59;1744599;80;20168;-58
2021/06/20 02:27:51;;;;;;;;;;;;;;;22.93;75.28;100488.45;1770420;79;21767;-59
2021/06/20 02:30:17;;;;;;;;;;;;;;;22.95;75.28;100488.13;1736714;80;20152;-59
2021/06/20 02:32:44;;;;;;;;;;;;;;;22.96;75.27;100487.77;1753580;80;20236;-58
2021/06/20 02:35:11;;;;;;;;;;;;;;;22.96;75.28;100483.59;1715063;81;20433;-59
2021/06/20 02:37:37;;;;;;;;;;;;;;;22.97;75.27;100483.84;1763241;80;20418;-59
2021/06/20 02:40:04;;;;;;;;;;;;;;;22.97;75.25;100485.80;1772869;78;21084;-59
2021/06/20 02:42:30;;;;;;;;;;;;;;;22.97;75.23;100486.62;1771359;78;20634;-59
2021/06/20 02:44:56;;;;;;;;;;;;;;;22.97;75.27;100487.19;1766656;78;20756;-58
2021/06/20 02:47:22;;;;;;;;;;;;;;;22.96;75.28;100478.63;1764356;79;20736;-58
2021/06/20 02:49:48;;;;;;;;;;;;;;;22.94;75.29;100480.38;1754845;79;20259;-58
2021/06/20 02:52:14;;;;;;;;;;;;;;;22.94;75.26;100476.78;1762616;79;23183;-58
2021/06/20 02:54:50;;;;;;;;;;;;;;;22.91;75.28;100471.36;1758464;78;20134;-58
2021/06/20 02:57:21;;;;;;;;;;;;;;;22.89;75.27;100475.61;1726872;80;20123;-58
2021/06/20 02:59:47;;;;;;;;;;;;;;;22.86;75.28;100481.84;1734107;81;20187;-58
2021/06/20 03:02:13;;;;;;;;;;;;;;;22.84;75.27;100481.36;1737325;80;20138;-58
2021/06/20 03:04:39;;;;;;;;;;;;;;;22.82;75.28;100476.74;1740754;80;21199;-58
2021/06/20 03:07:04;;;;;;;;;;;;;;;22.80;75.29;100480.41;1737312;81;20231;-59
2021/06/20 03:09:30;;;;;;;;;;;;;;;22.78;75.31;100479.95;1736657;80;20277;-59
2021/06/20 03:11:56;;;;;;;;;;;;;;;22.75;75.30;100493.91;1736150;81;20235;-59
2021/06/20 03:14:22;;;;;;;;;;;;;;;22.73;75.32;100516.46;1732765;80;20246;-57
2021/06/20 03:16:48;;;;;;;;;;;;;;;22.72;75.31;100519.56;1742187;81;21258;-56
2021/06/20 03:19:14;;;;;;;;;;;;;;;22.73;75.29;100501.78;1735069;81;21651;-58
2021/06/20 03:21:41;;;;;;;;;;;;;;;22.74;75.30;100507.56;1740986;81;20145;-57
2021/06/20 03:24:08;;;;;;;;;;;;;;;22.73;75.33;100506.75;1735828;81;20186;-57
2021/06/20 03:26:34;;;;;;;;;;;;;;;22.74;75.33;100503.41;1739064;81;20383;-57
2021/06/20 03:29:00;;;;;;;;;;;;;;;22.75;75.37;100505.01;1738340;80;21141;-57
2021/06/20 03:31:26;;;;;;;;;;;;;;;22.75;75.40;100505.82;1724884;81;20296;-56
2021/06/20 03:33:52;;;;;;;;;;;;;;;22.78;75.41;100498.80;1699028;82;20198;-57
2021/06/20 03:36:18;;;;;;;;;;;;;;;22.79;75.44;100492.08;1738883;80;20252;-57
2021/06/20 03:38:45;;;;;;;;;;;;;;;22.82;75.44;100496.16;1710713;82;20419;-57
2021/06/20 03:41:11;;;;;;;;;;;;;;;22.83;75.43;100493.63;1734041;81;22271;-57
2021/06/20 03:43:38;;;;;;;;;;;;;;;22.84;75.46;100500.20;1733356;81;21539;-57
2021/06/20 03:46:04;;;;;;;;;;;;;;;22.85;75.45;100494.08;1711588;81;20135;-57
2021/06/20 03:48:30;;;;;;;;;;;;;;;22.87;75.44;100493.18;1737891;80;20149;-57
2021/06/20 03:50:56;;;;;;;;;;;;;;;22.87;75.45;100495.95;1734379;81;20214;-57
2021/06/20 03:53:22;;;;;;;;;;;;;;;22.88;75.43;100498.94;1744084;81;20987;-57
2021/06/20 03:55:48;;;;;;;;;;;;;;;22.89;75.43;100495.02;1738125;80;20136;-56
2021/06/20 03:58:14;;;;;;;;;;;;;;;22.90;75.43;100498.03;1737411;81;20736;-58
2021/06/20 04:00:40;;;;;;;;;;;;;;;22.91;75.42;100493.55;1732829;80;20434;-57
2021/06/20 04:03:06;;;;;;;;;;;;;;;22.93;75.44;100486.25;1741867;81;20812;-57
2021/06/20 04:05:32;;;;;;;;;;;;;;;22.92;75.40;100488.21;1735682;81;21203;-57
2021/06/20 04:08:00;;;;;;;;;;;;;;;22.92;75.42;100484.63;1739696;81;20232;-57
2021/06/20 04:10:26;;;;;;;;;;;;;;;22.91;75.43;100486.61;1735785;80;20166;-57
2021/06/20 04:12:53;;;;;;;;;;;;;;;22.90;75.42;100490.53;1731881;80;20170;-57
2021/06/20 04:15:19;;;;;;;;;;;;;;;22.88;75.43;100484.50;1732086;80;20151;-57
2021/06/20 04:17:45;;;;;;;;;;;;;;;22.86;75.44;100482.66;1735703;81;22674;-57
2021/06/20 04:20:13;;;;;;;;;;;;;;;22.86;75.44;100483.23;1736651;81;20162;-57
2021/06/20 04:22:40;;;;;;;;;;;;;;;22.84;75.42;100482.17;1740278;81;20402;-57
2021/06/20 04:25:06;;;;;;;;;;;;;;;22.83;75.43;100477.77;1747584;81;20222;-57
2021/06/20 04:27:32;;;;;;;;;;;;;;;22.81;75.44;100472.34;1738241;81;20182;-57
2021/06/20 04:29:58;;;;;;;;;;;;;;;22.79;75.42;100471.28;1735144;81;21161;-57
2021/06/20 04:32:24;;;;;;;;;;;;;;;22.78;75.43;100467.48;1737949;81;20162;-56
2021/06/20 04:34:50;;;;;;;;;;;;;;;22.75;75.44;100464.22;1746699;81;20209;-57
2021/06/20 04:37:16;;;;;;;;;;;;;;;22.74;75.44;100461.81;1737414;81;20241;-57
2021/06/20 04:39:42;;;;;;;;;;;;;;;22.73;75.45;100467.11;1737259;80;20192;-57
2021/06/20 04:42:10;;;;;;;;;;;;;;;22.74;75.43;100461.81;1736916;80;21171;-57
2021/06/20 04:44:43;;;;;;;;;;;;;;;22.74;75.43;100458.43;1734277;80;20504;-57
2021/06/20 04:47:10;;;;;;;;;;;;;;;22.75;75.43;100461.45;1703887;82;20380;-58
2021/06/20 04:49:36;;;;;;;;;;;;;;;22.75;75.43;100465.61;1714460;82;20636;-58
2021/06/20 04:52:06;;;;;;;;;;;;;;;22.76;75.46;100467.23;1730490;80;20200;-58
2021/06/20 04:54:35;;;;;;;;;;;;;;;22.78;75.47;100461.36;1726373;81;21115;-59
2021/06/20 04:57:02;;;;;;;;;;;;;;;22.79;75.50;100463.56;1722756;80;20152;-59
2021/06/20 04:59:28;;;;;;;;;;;;;;;22.82;75.52;100465.65;1766345;79;20130;-58
2021/06/20 05:01:54;;;;;;;;;;;;;;;22.84;75.53;100468.88;1765990;80;20157;-59
2021/06/20 05:04:20;;;;;;;;;;;;;;;22.84;75.51;100467.48;1768184;80;20159;-58
2021/06/20 05:06:46;;;;;;;;;;;;;;;22.86;75.52;100474.91;1770111;79;21019;-58
2021/06/20 05:09:12;;;;;;;;;;;;;;;22.87;75.51;100473.77;1760461;79;21046;-58
2021/06/20 05:11:38;;;;;;;;;;;;;;;22.88;75.51;100480.91;1757989;79;20714;-58
2021/06/20 05:14:03;;;;;;;;;;;;;;;22.90;75.50;100485.55;1765261;79;20686;-59
2021/06/20 05:16:29;;;;;;;;;;;;;;;22.90;75.49;100482.20;1761775;79;20176;-59
2021/06/20 05:18:55;;;;;;;;;;;;;;;22.90;75.48;100482.20;1752895;79;21011;-58
2021/06/20 05:21:21;;;;;;;;;;;;;;;22.92;75.47;100483.23;1766638;78;20210;-59
2021/06/20 05:23:47;;;;;;;;;;;;;;;22.94;75.48;100472.62;1762884;79;20086;-58
2021/06/20 05:26:14;;;;;;;;;;;;;;;22.95;75.46;100470.09;1766336;79;20222;-58
2021/06/20 05:28:39;;;;;;;;;;;;;;;22.96;75.45;100469.73;1765781;79;20235;-58
2021/06/20 05:31:05;;;;;;;;;;;;;;;22.97;75.43;100471.36;1769165;78;21022;-58
2021/06/20 05:33:31;;;;;;;;;;;;;;;22.96;75.46;100468.34;1770258;79;20186;-58
2021/06/20 05:35:57;;;;;;;;;;;;;;;22.95;75.45;100469.52;1766561;79;20191;-58
2021/06/20 05:38:23;;;;;;;;;;;;;;;22.95;75.46;100460.38;1763874;79;20419;-58
2021/06/20 05:40:49;;;;;;;;;;;;;;;22.95;75.43;100461.77;1729654;80;20279;-59
2021/06/20 05:43:15;;;;;;;;;;;;;;;22.92;75.43;100462.43;1726132;80;21121;-59
2021/06/20 05:45:41;;;;;;;;;;;;;;;22.90;75.41;100461.97;1734111;80;20255;-58
2021/06/20 05:48:08;;;;;;;;;;;;;;;22.90;75.41;100456.42;1734317;80;20198;-58
2021/06/20 05:50:33;;;;;;;;;;;;;;;22.87;75.42;100453.77;1727321;80;20440;-58
2021/06/20 05:52:59;;;;;;;;;;;;;;;22.86;75.43;100456.30;1728377;80;20790;-58
2021/06/20 05:55:25;;;;;;;;;;;;;;;22.86;75.42;100451.33;1723566;80;22049;-57
2021/06/20 05:57:51;;;;;;;;;;;;;;;22.84;75.42;100447.50;1724818;80;20607;-58
2021/06/20 06:00:18;;;;;;;;;;;;;;;22.83;75.43;100440.92;1725995;80;20301;-57
2021/06/20 06:02:44;;;;;;;;;;;;;;;22.84;75.47;100448.07;1734175;79;20203;-58
2021/06/20 06:05:11;;;;;;;;;;;;;;;22.86;75.44;100443.82;1754978;79;20323;-58
2021/06/20 06:07:37;;;;;;;;;;;;;;;22.91;75.43;100445.58;1745600;79;21143;-57
2021/06/20 06:10:04;;;;;;;;;;;;;;;22.95;75.39;100448.71;1732301;80;20759;-58
2021/06/20 06:12:30;;;;;;;;;;;;;;;22.99;75.39;100454.38;1717706;80;20386;-58
2021/06/20 06:14:56;;;;;;;;;;;;;;;23.02;75.39;100453.12;1721061;80;21954;-58
2021/06/20 06:17:22;;;;;;;;;;;;;;;23.07;75.39;100453.48;1727077;80;20478;-57
2021/06/20 06:19:49;;;;;;;;;;;;;;;23.10;75.38;100457.77;1726669;80;20341;-57
2021/06/20 06:22:16;;;;;;;;;;;;;;;23.14;75.40;100460.66;1730623;80;20276;-56
2021/06/20 06:24:43;;;;;;;;;;;;;;;23.18;75.37;100458.81;1730407;80;20215;-57
2021/06/20 06:27:10;;;;;;;;;;;;;;;23.22;75.33;100455.58;1723054;80;20239;-57
2021/06/20 06:29:36;;;;;;;;;;;;;;;23.23;75.29;100458.59;1727801;80;20233;-58
2021/06/20 06:32:03;;;;;;;;;;;;;;;23.23;75.28;100456.64;1721364;80;21137;-57
2021/06/20 06:34:28;;;;;;;;;;;;;;;23.26;75.27;100459.87;1723473;80;20143;-58
2021/06/20 06:36:54;;;;;;;;;;;;;;;23.26;75.22;100455.70;1729567;80;20838;-58
2021/06/20 06:39:20;;;;;;;;;;;;;;;23.28;75.23;100444.50;1740452;80;20685;-58
2021/06/20 06:41:46;;;;;;;;;;;;;;;23.29;75.24;100437.81;1752789;79;20308;-58
2021/06/20 06:44:12;;;;;;;;;;;;;;;23.32;75.26;100431.55;1762858;79;20220;-58
2021/06/20 06:46:38;;;;;;;;;;;;;;;23.35;75.24;100430.86;1759726;79;21706;-57
2021/06/20 06:49:04;;;;;;;;;;;;;;;23.40;75.20;100432.03;1760591;79;20229;-58
2021/06/20 06:51:30;;;;;;;;;;;;;;;23.41;75.19;100429.49;1760348;80;20163;-58
2021/06/20 06:53:56;;;;;;;;;;;;;;;23.42;75.18;100428.34;1761832;79;20167;-58
2021/06/20 06:56:22;;;;;;;;;;;;;;;23.41;75.14;100435.05;1758285;79;21149;-57
2021/06/20 06:58:48;;;;;;;;;;;;;;;23.40;75.11;100430.64;1754712;79;20183;-58
2021/06/20 07:01:14;;;;;;;;;;;;;;;23.39;75.11;100431.78;1756353;79;20263;-58
2021/06/20 07:03:40;;;;;;;;;;;;;;;23.38;75.07;100440.48;1756142;79;20580;-57
2021/06/20 07:06:06;;;;;;;;;;;;;;;23.35;75.09;100438.38;1760849;79;20397;-58
2021/06/20 07:08:32;;;;;;;;;;;;;;;23.34;75.10;100438.16;1757570;80;21021;-58
2021/06/20 07:10:58;;;;;;;;;;;;;;;23.35;75.09;100443.35;1763943;79;21662;-58
2021/06/20 07:13:24;;;;;;;;;;;;;;;23.35;75.11;100450.29;1757330;80;20136;-58
2021/06/20 07:15:50;;;;;;;;;;;;;;;23.36;75.09;100448.33;1751031;79;20436;-57
2021/06/20 07:18:16;;;;;;;;;;;;;;;23.34;75.05;100445.89;1754924;79;20167;-57
2021/06/20 07:20:42;;;;;;;;;;;;;;;23.32;75.00;100450.98;1752557;79;21152;-58
2021/06/20 07:23:08;;;;;;;;;;;;;;;23.29;74.98;100457.23;1754726;79;20230;-57
2021/06/20 07:25:34;;;;;;;;;;;;;;;23.28;74.96;100446.47;1754197;79;20696;-57
2021/06/20 07:27:59;;;;;;;;;;;;;;;23.29;74.94;100450.87;1760145;79;20729;-58
2021/06/20 07:30:27;;;;;;;;;;;;;;;23.27;74.93;100455.37;1762852;79;20574;-57
2021/06/20 07:32:54;;;;;;;;;;;;;;;23.27;74.96;100452.59;1758322;79;21052;-57
2021/06/20 07:35:20;;;;;;;;;;;;;;;23.26;74.97;100453.74;1758196;79;20251;-58
2021/06/20 07:37:46;;;;;;;;;;;;;;;23.26;74.99;100452.92;1754842;79;20243;-58
2021/06/20 07:40:13;;;;;;;;;;;;;;;23.27;75.00;100453.16;1763910;79;20166;-59
2021/06/20 07:42:39;;;;;;;;;;;;;;;23.26;75.00;100448.77;1746460;80;20492;-58
2021/06/20 07:45:06;;;;;;;;;;;;;;;23.26;74.99;100450.97;1728780;80;21139;-61
2021/06/20 07:47:32;;;;;;;;;;;;;;;23.26;75.00;100449.58;1732268;80;20477;-58
2021/06/20 07:49:58;;;;;;;;;;;;;;;23.27;75.03;100444.84;1727438;81;20751;-58
2021/06/20 07:52:24;;;;;;;;;;;;;;;23.28;75.05;100441.73;1728819;80;20624;-57
2021/06/20 07:54:50;;;;;;;;;;;;;;;23.31;75.10;100443.81;1725842;80;20221;-57
2021/06/20 07:57:17;;;;;;;;;;;;;;;23.35;75.08;100439.19;1728206;80;21104;-59
2021/06/20 07:59:45;;;;;;;;;;;;;;;23.39;75.07;100437.34;1734396;82;20204;-59
2021/06/20 08:02:11;;;;;;;;;;;;;;;23.40;74.91;100438.97;1731639;81;20178;-59
2021/06/20 08:04:38;;;;;;;;;;;;;;;23.38;74.79;100437.09;1730538;82;20171;-59
2021/06/20 08:07:04;;;;;;;;;;;;;;;23.37;74.75;100435.50;1730619;80;20220;-58
2021/06/20 08:09:30;;;;;;;;;;;;;;;23.34;74.66;100430.62;1726608;80;21189;-59
2021/06/20 08:11:55;;;;;;;;;;;;;;;23.31;74.57;100432.70;1726657;81;20775;-59
2021/06/20 08:14:22;;;;;;;;;;;;;;;23.28;74.52;100432.02;1728236;81;20198;-58
2021/06/20 08:16:47;;;;;;;;;;;;;;;23.24;74.49;100433.86;1699455;82;21824;-59
2021/06/20 08:19:14;;;;;;;;;;;;;;;23.21;74.46;100428.41;1694799;83;20286;-59
2021/06/20 08:21:42;;;;;;;;;;;;;;;23.19;74.47;100427.14;1676076;83;21102;-59
2021/06/20 08:24:08;;;;;;;;;;;;;;;23.16;74.45;100431.42;1691445;83;20157;-58
2021/06/20 08:26:34;;;;;;;;;;;;;;;23.14;74.46;100431.52;1730566;81;20348;-58
2021/06/20 08:29:00;;;;;;;;;;;;;;;23.12;74.42;100434.66;1721951;82;20190;-59
2021/06/20 08:31:26;;;;;;;;;;;;;;;23.09;74.32;100438.67;1722113;81;20221;-59
2021/06/20 08:33:52;;;;;;;;;;;;;;;23.05;74.34;100433.57;1716160;82;21150;-58
2021/06/20 08:36:18;;;;;;;;;;;;;;;23.04;74.31;100429.20;1738642;80;20382;-58
2021/06/20 08:38:44;;;;;;;;;;;;;;;23.01;74.27;100427.91;1724711;81;20762;-58
2021/06/20 08:41:13;;;;;;;;;;;;;;;22.99;74.14;100435.77;1737710;80;20160;-59
2021/06/20 08:43:39;;;;;;;;;;;;;;;22.97;74.09;100433.09;1756384;79;20415;-59
2021/06/20 08:46:05;;;;;;;;;;;;;;;22.95;74.10;100433.45;1757884;79;22023;-58
2021/06/20 08:48:33;;;;;;;;;;;;;;;22.98;74.05;100437.50;1757076;79;20170;-59
2021/06/20 08:50:59;;;;;;;;;;;;;;;22.99;74.03;100430.23;1758640;79;20230;-59
2021/06/20 08:53:25;;;;;;;;;;;;;;;23.02;74.07;100431.49;1753171;79;20928;-58
2021/06/20 08:55:52;;;;;;;;;;;;;;;23.07;74.12;100430.70;1761444;79;20477;-59
2021/06/20 08:58:26;;;;;;;;;;;;;;;23.12;74.09;100432.45;1754168;79;22133;-58
2021/06/20 09:00:52;;;;;;;;;;;;;;;23.16;74.07;100436.16;1757119;79;20421;-57
2021/06/20 09:03:18;;;;;;;;;;;;;;;23.21;73.92;100438.72;1756823;80;20144;-58
2021/06/20 09:06:00;;;;;;;;;;;;;;;23.26;73.88;100439.05;1752235;80;20155;-58
2021/06/20 09:08:27;;;;;;;;;;;;;;;23.29;73.78;100439.20;1760080;79;20159;-58
2021/06/20 09:10:54;;;;;;;;;;;;;;;23.33;73.72;100435.15;1761636;79;21138;-58
2021/06/20 09:13:20;;;;;;;;;;;;;;;23.36;73.64;100436.66;1757364;79;20125;-58
2021/06/20 09:15:46;;;;;;;;;;;;;;;23.38;73.58;100438.48;1775357;79;20705;-58
2021/06/20 09:18:12;;;;;;;;;;;;;;;23.41;73.54;100446.15;1715620;80;20652;-58
2021/06/20 09:20:42;;;;;;;;;;;;;;;23.43;73.52;100450.80;1756046;79;20171;-59
2021/06/20 09:23:11;;;;;;;;;;;;;;;23.43;73.39;100448.02;1763899;79;21182;-58
2021/06/20 09:25:38;;;;;;;;;;;;;;;23.46;73.35;100456.25;1759664;79;20401;-54
2021/06/20 09:28:05;;;;;;;;;;;;;;;23.46;73.24;100450.70;1758608;79;20188;-55
2021/06/20 09:30:34;;;;;;;;;;;;;;;23.46;73.18;100456.25;1754231;79;20149;-55
2021/06/20 09:33:02;;;;;;;;;;;;;;;23.45;73.11;100454.05;1726036;80;20234;-54
2021/06/20 09:35:51;;;;;;;;;;;;;;;23.43;73.11;100457.73;1754918;79;21142;-55
2021/06/20 09:38:27;;;;;;;;;;;;;;;23.42;73.11;100457.50;1755896;79;21034;-54
2021/06/20 09:41:05;;;;;;;;;;;;;;;23.41;73.08;100454.48;1759710;80;20168;-55
2021/06/20 09:43:32;;;;;;;;;;;;;;;23.43;73.11;100465.22;1738196;79;20437;-53
2021/06/20 09:45:59;;;;;;;;;;;;;;;23.44;73.09;100456.59;1733378;82;20466;-53
2021/06/20 09:48:28;;;;;;;;;;;;;;;23.43;73.04;100452.73;1686152;83;21185;-57
2021/06/20 09:50:58;;;;;;;;;;;;;;;23.43;73.00;100454.96;1663791;84;20443;-55
2021/06/20 09:53:35;;;;;;;;;;;;;;;23.42;72.99;100452.52;1725721;80;20170;-53
2021/06/20 09:56:16;;;;;;;;;;;;;;;23.42;72.98;100451.94;1714620;82;20144;-57
2021/06/20 09:58:43;;;;;;;;;;;;;;;23.38;72.89;100450.98;1725163;81;20181;-57
2021/06/20 10:01:13;;;;;;;;;;;;;;;23.36;72.75;100454.70;1731249;80;21141;-56
2021/06/20 10:03:40;;;;;;;;;;;;;;;23.33;72.66;100453.19;1729758;80;20253;-57
2021/06/20 10:06:06;;;;;;;;;;;;;;;23.32;72.59;100452.38;1689850;82;20460;-58
2021/06/20 10:08:32;;;;;;;;;;;;;;;23.31;72.40;100456.88;1732041;82;20404;-57
2021/06/20 10:10:58;;;;;;;;;;;;;;;23.29;72.26;100451.69;1731730;81;20456;-56
2021/06/20 10:13:24;;;;;;;;;;;;;;;23.28;72.12;100444.50;1733318;80;20401;-56
2021/06/20 10:15:50;;;;;;;;;;;;;;;23.29;72.12;100446.13;1726428;80;20441;-56
2021/06/20 10:18:16;;;;;;;;;;;;;;;23.33;72.13;100447.06;1704568;83;20185;-59
2021/06/20 10:20:42;;;;;;;;;;;;;;;23.37;72.17;100445.22;1726512;81;20177;-57
2021/06/20 10:23:24;;;;;;;;;;;;;;;23.41;72.22;100432.27;1721140;80;20233;-56
2021/06/20 10:25:50;;;;;;;;;;;;;;;23.46;72.24;100439.02;1724760;81;21018;-57
2021/06/20 10:28:18;;;;;;;;;;;;;;;23.49;72.28;100436.93;1709279;81;20175;-57
2021/06/20 10:30:45;;;;;;;;;;;;;;;23.53;72.26;100422.59;1725468;80;20171;-57
2021/06/20 10:33:13;;;;;;;;;;;;;;;23.58;72.20;100426.52;1730850;80;20140;-57
2021/06/20 10:35:40;;;;;;;;;;;;;;;23.62;72.19;100427.45;1730166;80;20207;-56
2021/06/20 10:38:06;;;;;;;;;;;;;;;23.63;72.13;100424.91;1727555;80;21022;-56
2021/06/20 10:40:38;;;;;;;;;;;;;;;23.62;72.05;100416.92;1727341;80;20423;-57
2021/06/20 10:43:16;;;;;;;;;;;;;;;23.63;72.08;100417.97;1711303;82;20237;-56
2021/06/20 10:45:42;;;;;;;;;;;;;;;23.64;72.04;100415.41;1700498;83;20204;-57
2021/06/20 10:48:20;;;;;;;;;;;;;;;23.66;72.01;100415.06;1692520;82;20515;-56
2021/06/20 10:50:50;;;;;;;;;;;;;;;23.67;71.97;100411.14;1712921;81;21140;-57
2021/06/20 10:53:16;;;;;;;;;;;;;;;23.65;71.88;100411.47;1759868;80;20689;-56
2021/06/20 10:55:51;;;;;;;;;;;;;;;23.63;71.86;100412.99;1764775;80;20430;-56
2021/06/20 10:58:23;;;;;;;;;;;;;;;23.60;71.79;100414.48;1762195;80;20486;-57
2021/06/20 11:00:51;;;;;;;;;;;;;;;23.56;71.73;100408.00;1724157;80;20222;-57
2021/06/20 11:03:27;;;;;;;;;;;;;;;23.52;71.70;100413.20;1714337;83;21901;-57
2021/06/20 11:06:08;;;;;;;;;;;;;;;23.48;71.67;100410.89;1707746;81;20174;-57
2021/06/20 11:08:37;;;;;;;;;;;;;;;23.44;71.67;100405.80;1710487;81;20186;-57
2021/06/20 11:11:09;;;;;;;;;;;;;;;23.40;71.68;100410.39;1696282;82;20141;-57
2021/06/20 11:13:35;;;;;;;;;;;;;;;23.36;71.71;100402.52;1759748;80;20388;-57
2021/06/20 11:16:06;;;;;;;;;;;;;;;23.33;71.71;100408.78;1759671;79;21120;-57
2021/06/20 11:18:32;;;;;;;;;;;;;;;23.30;71.73;100412.25;1758652;80;20157;-58
2021/06/20 11:20:58;;;;;;;;;;;;;;;23.28;71.72;100412.59;1763971;79;20174;-57
2021/06/20 11:23:29;;;;;;;;;;;;;;;23.27;71.72;100410.95;1719912;80;20325;-57
2021/06/20 11:25:53;;;;;;;;;;;;;;;23.27;71.76;100416.52;1757033;80;20162;-57
2021/06/20 11:28:19;;;;;;;;;;;;;;;23.28;71.81;100414.55;1761065;79;21113;-58
2021/06/20 11:30:45;;;;;;;;;;;;;;;23.28;71.86;100414.55;1761399;79;20130;-57
2021/06/20 11:33:26;;;;;;;;;;;;;;;23.28;71.92;100412.59;1752935;80;20376;-58
2021/06/20 11:35:53;;;;;;;;;;;;;;;23.32;71.97;100414.09;1756802;79;20411;-58
2021/06/20 11:38:31;;;;;;;;;;;;;;;23.33;71.99;100406.81;1753959;80;20221;-57
2021/06/20 11:41:20;;;;;;;;;;;;;;;23.36;72.02;100414.44;1758738;79;20742;-58
2021/06/20 11:43:57;;;;;;;;;;;;;;;23.39;72.06;100416.52;1742883;79;20215;-57
2021/06/20 11:46:24;;;;;;;;;;;;;;;23.42;72.06;100414.46;1727272;81;20148;-57
2021/06/20 11:48:55;;;;;;;;;;;;;;;23.46;72.04;100411.83;1726179;81;20202;-57
2021/06/20 11:51:35;;;;;;;;;;;;;;;23.50;72.08;100408.59;1726217;82;20171;-56
2021/06/20 11:54:10;;;;;;;;;;;;;;;23.53;72.08;100404.53;1720591;81;21140;-56
2021/06/20 11:56:38;;;;;;;;;;;;;;;23.56;72.05;100402.45;1725763;81;20143;-56
2021/06/20 11:59:05;;;;;;;;;;;;;;;23.59;72.00;100394.80;1695064;81;20141;-56
2021/06/20 12:01:41;;;;;;;;;;;;;;;23.60;71.96;100391.45;1661652;84;20294;-56
2021/06/20 12:04:08;;;;;;;;;;;;;;;23.61;71.90;100389.72;1732156;80;20269;-57
2021/06/20 12:06:35;;;;;;;;;;;;;;;23.61;71.87;100383.35;1726935;81;21102;-56
2021/06/20 12:09:01;;;;;;;;;;;;;;;23.61;71.83;100375.84;1727432;81;20466;-57
2021/06/20 12:11:32;;;;;;;;;;;;;;;23.61;71.78;100381.39;1728320;81;20164;-58
2021/06/20 12:13:58;;;;;;;;;;;;;;;23.60;71.76;100363.10;1728363;80;20478;-59
2021/06/20 12:16:24;;;;;;;;;;;;;;;23.60;71.75;100371.43;1726978;81;20210;-57
2021/06/20 12:18:50;;;;;;;;;;;;;;;23.60;71.71;100370.05;1727273;81;21012;-58
2021/06/20 12:21:26;;;;;;;;;;;;;;;23.60;71.70;100370.05;1727418;81;20253;-57
2021/06/20 12:23:54;;;;;;;;;;;;;;;23.61;71.70;100365.30;1727026;81;20163;-57
2021/06/20 12:26:29;;;;;;;;;;;;;;;23.59;71.67;100369.02;1722377;81;20146;-58
2021/06/20 12:28:56;;;;;;;;;;;;;;;23.58;71.65;100359.06;1723854;83;20658;-61
2021/06/20 12:31:22;;;;;;;;;;;;;;;23.58;71.66;100365.43;1727481;81;22030;-58
2021/06/20 12:34:04;;;;;;;;;;;;;;;23.59;71.63;100364.25;1726765;81;20167;-58
2021/06/20 12:36:30;;;;;;;;;;;;;;;23.62;71.58;100361.38;1725441;81;20172;-58